首页
METAR-TAF:

METAR-TAF

机场 :

邁亞密國際機場

迈阿密, 佛罗里达州, 美国

纬度: 25-47-26N, 经度: 080-18-59W, 海拔: 3米

当前天气观测

该预报发布于25分钟前的16:53 UTC
风速9节,风向北转西北
温度 19°C
湿度 64%
气压 1023 hPa
能見度: 16.1公里
散云层高于4900英尺
散云层高于25000英尺

METAR: KMIA 161653Z 33009KT 10SM SCT049 SCT250 19/12 A3020 RMK AO2 SLP225 T01940122

时间: 12:18 (17:18 UTC)

预报

该预报发布于2小时和18分钟前的15:00 UTC
预报有效从16日的 15点(UTC)到 17日的 18点(UTC)
风速11节,风向
能見度: 10公里
散云层高于3500英尺
散云层高于25000英尺
从 17日的 0100点(UTC)
风速7节,风向北转西北
能見度: 10公里
少量云层高于3500英尺
多云层高于15000英尺
从 17日的 1400点(UTC)
风速9节,风向北转东北
能見度: 10公里
散云层高于3500英尺

TAF: KMIA 161500Z 1615/1718 35011KT P6SM SCT035 SCT250 FM170100 34007KT P6SM FEW035 BKN150 FM171400 03009KT P6SM SCT035

超过4000个机场的气象观测和天气预报(METAR&TAF报告)。

可查询的气象台以黄色和红色小点在地图上表示。

将鼠标移到小点上方,可查看气象台名称。

然后点击查看天气观测和预报。

如需切换地图:点击带黑十字的绿色按钮放大地图;点击带横线的绿色按钮缩小地图;或者点击绿色箭头查看邻近地区的地图。


METAR-TAF: